Time;durP1;ratioP1;P1;durP2;ratioP2;P2;SDS_P1;SDS_P2;PMS_P1;PMS_P2;Temp;Humidity;BMP_temperature;BMP_pressure;BME280_temperature;BME280_humidity;BME280_pressure;Samples;Min_cycle;Max_cycle;Signal;HPM_P1;HPM_P2
2022/08/05 00:01:24;;;;;;;9.05;6.17;;;;;;;20.07;90.61;100308.09;1760666;81;21057;-58
2022/08/05 00:03:56;;;;;;;6.37;5.60;;;;;;;20.07;90.72;100301.13;1761222;81;20991;-59
2022/08/05 00:06:26;;;;;;;8.03;5.92;;;;;;;20.07;90.79;100300.58;1760835;81;21047;-59
2022/08/05 00:08:59;;;;;;;7.53;5.67;;;;;;;20.08;91.06;100302.81;1760204;81;21035;-59
2022/08/05 00:11:31;;;;;;;6.87;5.90;;;;;;;20.10;91.41;100302.00;1761050;81;21541;-58
2022/08/05 00:14:03;;;;;;;6.55;5.85;;;;;;;20.12;91.56;100300.63;1757241;81;21007;-59
2022/08/05 00:16:34;;;;;;;8.23;6.47;;;;;;;20.15;91.59;100303.44;1758657;81;21109;-58
2022/08/05 00:19:06;;;;;;;8.85;6.85;;;;;;;20.15;91.64;100297.87;1756869;81;21023;-59
2022/08/05 00:21:35;;;;;;;7.10;6.12;;;;;;;20.17;91.65;100302.66;1755964;81;21110;-58
2022/08/05 00:24:06;;;;;;;8.88;6.60;;;;;;;20.18;91.68;100309.90;1754584;82;21043;-64
2022/08/05 00:26:37;;;;;;;9.73;6.30;;;;;;;20.18;91.70;100305.17;1754694;82;21031;-59
2022/08/05 00:29:06;;;;;;;7.10;5.95;;;;;;;20.17;91.91;100298.48;1757353;81;21403;-58
2022/08/05 00:31:37;;;;;;;7.60;6.15;;;;;;;20.18;92.02;100305.73;1761044;81;21026;-59
2022/08/05 00:34:09;;;;;;;7.55;6.75;;;;;;;20.20;92.03;100310.48;1756956;81;21066;-59
2022/08/05 00:36:41;;;;;;;8.83;6.83;;;;;;;20.18;92.07;100302.95;1755715;81;21455;-59
2022/08/05 00:39:12;;;;;;;8.45;6.25;;;;;;;20.18;92.17;100302.39;1755703;81;21043;-58
2022/08/05 00:41:45;;;;;;;7.65;6.37;;;;;;;20.20;92.24;100296.56;1759529;81;21050;-57
2022/08/05 00:44:16;;;;;;;8.73;6.58;;;;;;;20.19;92.27;100289.32;1733421;81;21081;-60
2022/08/05 00:46:45;;;;;;;9.43;6.22;;;;;;;20.18;92.40;100289.03;1759490;81;21254;-60
2022/08/05 00:49:18;;;;;;;8.75;6.58;;;;;;;20.17;92.56;100284.02;1758546;81;21027;-60
2022/08/05 00:51:48;;;;;;;7.95;7.15;;;;;;;20.13;92.68;100279.22;1671461;86;21039;-58
2022/08/05 00:54:20;;;;;;;8.90;7.28;;;;;;;20.13;92.84;100280.05;1645049;87;21090;-58
2022/08/05 00:56:49;;;;;;;7.78;6.37;;;;;;;20.16;92.81;100288.46;1645073;87;21087;-59
2022/08/05 00:59:20;;;;;;;11.33;6.50;;;;;;;20.17;92.72;100290.98;1645170;87;21059;-58
2022/08/05 01:01:50;;;;;;;8.35;6.40;;;;;;;20.18;92.59;100286.25;1647458;86;21078;-59
2022/08/05 01:04:21;;;;;;;8.30;6.58;;;;;;;20.15;92.58;100283.97;1668157;85;21114;-62
2022/08/05 01:06:52;;;;;;;9.83;7.30;;;;;;;20.15;92.50;100286.75;1668423;86;21569;-58
2022/08/05 01:09:23;;;;;;;9.03;6.67;;;;;;;20.12;92.53;100284.49;1693907;81;21165;-58
2022/08/05 01:11:57;;;;;;;9.08;6.70;;;;;;;20.10;92.67;100278.35;1747698;81;21096;-59
2022/08/05 01:14:55;;;;;;;9.03;6.67;;;;;;;20.09;92.52;100280.30;1723811;81;21026;-60
2022/08/05 01:17:33;;;;;;;7.00;6.20;;;;;;;20.08;92.44;100277.78;1762123;81;21014;-59
2022/08/05 01:20:42;;;;;;;7.97;6.60;;;;;;;20.01;92.48;100279.38;1763060;80;21018;-65
2022/08/05 01:23:51;;;;;;;7.47;6.15;;;;;;;20.01;92.64;100277.98;1755823;80;21513;-58
2022/08/05 01:26:49;;;;;;;8.48;6.70;;;;;;;19.99;92.57;100278.80;1752192;81;21012;-59
2022/08/05 01:29:30;;;;;;;8.25;6.90;;;;;;;19.94;92.64;100286.55;1733053;83;21055;-57
2022/08/05 01:32:05;;;;;;;8.50;6.83;;;;;;;19.93;92.61;100277.91;1733061;83;21082;-59
2022/08/05 01:34:44;;;;;;;9.85;7.83;;;;;;;19.93;92.44;100268.18;1761520;81;21022;-60
2022/08/05 01:37:31;;;;;;;7.65;6.28;;;;;;;19.94;92.43;100266.23;1763338;81;21000;-57
2022/08/05 01:40:03;;;;;;;7.00;6.20;;;;;;;19.94;92.30;100268.47;1762192;81;21054;-59
2022/08/05 01:42:32;;;;;;;7.08;6.37;;;;;;;19.91;92.16;100264.83;1760204;81;21042;-58
2022/08/05 01:45:03;;;;;;;7.08;6.37;;;;;;;19.90;92.15;100259.52;1757090;82;21050;-58
2022/08/05 01:47:35;;;;;;;8.65;6.92;;;;;;;19.87;92.19;100256.72;1756868;82;21015;-58
2022/08/05 01:50:23;;;;;;;9.25;6.03;;;;;;;19.86;92.21;100260.59;1756614;81;21051;-58
2022/08/05 01:52:58;;;;;;;8.15;6.42;;;;;;;19.86;92.19;100256.98;1749267;81;21522;-61
2022/08/05 01:55:28;;;;;;;7.62;6.58;;;;;;;19.84;92.08;100253.63;1739411;81;21087;-59
2022/08/05 01:57:59;;;;;;;6.62;6.00;;;;;;;19.82;92.15;100262.23;1756771;81;21086;-59
2022/08/05 02:00:30;;;;;;;8.20;6.50;;;;;;;19.80;92.20;100266.38;1762918;81;21501;-58
2022/08/05 02:03:25;;;;;;;8.73;6.83;;;;;;;19.77;92.31;100266.34;1766338;81;21501;-63
2022/08/05 02:05:56;;;;;;;8.88;7.20;;;;;;;19.76;92.37;100270.77;1765448;81;21019;-58
2022/08/05 02:08:28;;;;;;;9.00;6.62;;;;;;;19.71;92.60;100272.11;1766204;81;21027;-59
2022/08/05 02:11:11;;;;;;;8.13;6.08;;;;;;;19.68;92.83;100273.47;1764894;81;21133;-59
2022/08/05 02:13:53;;;;;;;8.60;6.65;;;;;;;19.69;93.05;100269.59;1761332;80;21034;-59
2022/08/05 02:16:46;;;;;;;9.28;6.80;;;;;;;19.73;93.12;100278.25;1756091;81;21030;-59
2022/08/05 02:19:31;;;;;;;7.47;6.58;;;;;;;19.74;93.12;100274.37;1758605;81;21027;-59
2022/08/05 02:22:10;;;;;;;7.67;6.53;;;;;;;19.75;93.15;100274.11;1759620;81;21057;-60
2022/08/05 02:24:45;;;;;;;11.55;7.15;;;;;;;19.78;93.25;100285.25;1759617;81;21030;-60
2022/08/05 02:27:16;;;;;;;8.10;7.10;;;;;;;19.78;93.07;100290.81;1762079;81;21047;-58
2022/08/05 02:29:47;;;;;;;10.53;7.37;;;;;;;19.75;92.92;100289.39;1762071;80;21078;-59
2022/08/05 02:32:20;;;;;;;8.93;6.90;;;;;;;19.73;92.90;100286.59;1759257;81;21077;-58
2022/08/05 02:34:52;;;;;;;7.35;6.62;;;;;;;19.71;92.90;100297.97;1698589;83;21047;-59
2022/08/05 02:37:24;;;;;;;8.50;7.05;;;;;;;19.69;92.93;100290.44;1699544;84;21027;-58
2022/08/05 02:39:54;;;;;;;9.95;7.62;;;;;;;19.65;92.73;100297.62;1732020;81;21058;-59
2022/08/05 02:42:25;;;;;;;9.75;7.28;;;;;;;19.60;93.14;100305.34;1699530;84;21031;-58
2022/08/05 02:44:56;;;;;;;9.70;7.92;;;;;;;19.61;93.24;100302.02;1698936;84;21107;-59
2022/08/05 02:47:25;;;;;;;8.85;6.95;;;;;;;19.62;93.41;100306.48;1732137;83;21046;-58
2022/08/05 02:49:57;;;;;;;8.75;6.95;;;;;;;19.64;93.56;100307.06;1697651;83;21039;-58
2022/08/05 02:52:29;;;;;;;9.23;7.70;;;;;;;19.66;93.52;100297.91;1727405;83;21054;-67
2022/08/05 02:55:01;;;;;;;8.90;7.53;;;;;;;19.68;93.56;100297.09;1663562;86;21090;-59
2022/08/05 02:57:32;;;;;;;9.40;7.53;;;;;;;19.69;93.19;100297.94;1687885;84;21035;-59
2022/08/05 03:00:04;;;;;;;11.15;7.58;;;;;;;19.68;93.17;100299.88;1709001;84;21108;-59
2022/08/05 03:02:38;;;;;;;9.48;6.78;;;;;;;19.69;93.12;100295.16;1712895;84;21068;-67
2022/08/05 03:05:09;;;;;;;8.78;7.03;;;;;;;19.70;93.04;100291.28;1697321;83;21163;-58
2022/08/05 03:07:41;;;;;;;8.83;7.53;;;;;;;19.70;92.68;100293.52;1692891;85;21044;-58
2022/08/05 03:10:14;;;;;;;8.33;7.33;;;;;;;19.66;92.69;100290.12;1691049;83;21054;-58
2022/08/05 03:12:46;;;;;;;9.38;7.45;;;;;;;19.61;92.73;100287.58;1685422;84;21111;-58
2022/08/05 03:15:18;;;;;;;8.35;6.85;;;;;;;19.64;92.97;100287.60;1715523;83;21048;-58
2022/08/05 03:17:48;;;;;;;8.75;6.90;;;;;;;19.65;92.93;100286.50;1719959;83;21023;-59
2022/08/05 03:20:20;;;;;;;9.75;7.28;;;;;;;19.67;92.56;100295.42;1720052;83;21074;-61
2022/08/05 03:22:49;;;;;;;8.85;7.15;;;;;;;19.67;92.55;100294.03;1719750;83;21058;-59
2022/08/05 03:25:21;;;;;;;10.03;7.22;;;;;;;19.69;92.62;100300.17;1721075;83;21070;-59
2022/08/05 03:27:54;;;;;;;13.48;7.75;;;;;;;19.72;92.51;100294.09;1719932;83;21051;-60
2022/08/05 03:30:28;;;;;;;9.68;7.72;;;;;;;19.74;92.21;100299.39;1704329;83;21070;-60
2022/08/05 03:33:04;;;;;;;10.05;7.60;;;;;;;19.72;92.12;100294.09;1692902;84;21071;-60
2022/08/05 03:35:35;;;;;;;12.75;7.65;;;;;;;19.69;91.93;100291.83;1682919;85;21033;-67
2022/08/05 03:38:06;;;;;;;8.73;7.50;;;;;;;19.68;92.03;100288.76;1721608;82;21047;-58
2022/08/05 03:40:43;;;;;;;9.65;6.85;;;;;;;19.70;91.98;100289.89;1727083;83;21082;-58
2022/08/05 03:43:14;;;;;;;7.42;6.58;;;;;;;19.72;91.92;100298.27;1726815;83;21082;-60
2022/08/05 03:45:46;;;;;;;10.43;7.30;;;;;;;19.74;91.84;100300.78;1723381;82;21471;-59
2022/08/05 03:48:18;;;;;;;8.30;7.15;;;;;;;19.75;91.57;100304.69;1725150;82;21449;-59
2022/08/05 03:51:10;;;;;;;8.15;7.08;;;;;;;19.71;91.27;100297.13;1717806;82;21540;-64
2022/08/05 03:54:18;;;;;;;8.83;7.12;;;;;;;19.73;91.50;100300.48;1719863;83;21047;-59
2022/08/05 03:56:50;;;;;;;7.15;6.45;;;;;;;19.74;91.35;100301.62;1719991;83;21063;-58
2022/08/05 03:59:28;;;;;;;9.25;7.37;;;;;;;19.70;91.42;100298.23;1723813;83;21071;-59
2022/08/05 04:02:00;;;;;;;8.35;7.45;;;;;;;19.70;91.67;100290.73;1719406;83;21227;-60
2022/08/05 04:04:30;;;;;;;10.00;8.03;;;;;;;19.72;91.80;100300.20;1686902;84;21460;-59
2022/08/05 04:07:00;;;;;;;9.43;8.03;;;;;;;19.73;91.95;100297.16;1697434;83;21110;-58
2022/08/05 04:09:32;;;;;;;8.33;7.37;;;;;;;19.78;91.89;100303.33;1723727;83;20995;-59
2022/08/05 04:12:05;;;;;;;9.08;7.53;;;;;;;19.80;91.72;100299.19;1693410;85;21047;-59
2022/08/05 04:14:38;;;;;;;9.63;8.10;;;;;;;19.81;91.38;100294.46;1704132;83;21031;-60
2022/08/05 04:17:08;;;;;;;11.88;8.10;;;;;;;19.79;91.49;100307.23;1715043;83;20992;-59
2022/08/05 04:19:47;;;;;;;11.63;8.65;;;;;;;19.82;91.41;100300.31;1688768;85;21059;-59
2022/08/05 04:22:18;;;;;;;11.70;8.15;;;;;;;19.81;90.95;100303.64;1692920;84;21035;-59
2022/08/05 04:24:49;;;;;;;9.03;7.95;;;;;;;19.78;90.95;100303.33;1665701;85;21040;-58
2022/08/05 04:27:20;;;;;;;10.50;8.20;;;;;;;19.75;90.98;100301.06;1694520;85;21070;-59
2022/08/05 04:29:52;;;;;;;10.75;8.18;;;;;;;19.74;91.29;100303.01;1690804;84;21007;-58
2022/08/05 04:32:21;;;;;;;11.83;8.10;;;;;;;19.75;91.47;100306.08;1694968;85;21524;-58
2022/08/05 04:34:52;;;;;;;10.20;8.20;;;;;;;19.76;91.88;100304.14;1664209;85;21058;-60
2022/08/05 04:37:24;;;;;;;9.00;7.60;;;;;;;19.78;92.45;100311.67;1661427;86;21043;-61
2022/08/05 04:39:55;;;;;;;7.37;6.62;;;;;;;19.75;93.05;100303.84;1694384;84;21106;-58
2022/08/05 04:42:25;;;;;;;9.55;7.20;;;;;;;19.75;93.60;100307.47;1722419;83;21086;-58
2022/08/05 04:44:55;;;;;;;10.32;7.58;;;;;;;19.79;93.85;100306.39;1723752;83;21007;-59
2022/08/05 04:47:25;;;;;;;7.62;6.83;;;;;;;19.78;93.93;100304.72;1723724;83;21102;-59
2022/08/05 04:49:56;;;;;;;8.38;6.60;;;;;;;19.77;94.07;100305.82;1723878;83;21031;-60
2022/08/05 04:52:28;;;;;;;8.88;6.50;;;;;;;19.77;93.86;100309.44;1696403;83;21102;-58
2022/08/05 04:55:00;;;;;;;7.17;6.35;;;;;;;19.77;94.07;100303.88;1759788;81;21015;-58
2022/08/05 04:57:31;;;;;;;7.62;6.37;;;;;;;19.75;94.14;100304.69;1755578;81;21090;-59
2022/08/05 05:00:05;;;;;;;8.15;6.45;;;;;;;19.75;94.02;100308.02;1758306;81;21051;-57
2022/08/05 05:02:35;;;;;;;12.50;7.03;;;;;;;19.74;94.23;100310.51;1756130;81;21047;-59
2022/08/05 05:05:07;;;;;;;7.25;6.53;;;;;;;19.73;94.48;100306.89;1757382;81;21007;-59
2022/08/05 05:07:39;;;;;;;7.90;7.10;;;;;;;19.71;94.58;100299.91;1754054;81;21067;-58
2022/08/05 05:10:11;;;;;;;10.20;8.25;;;;;;;19.67;94.83;100295.97;1756180;81;21509;-59
2022/08/05 05:12:42;;;;;;;9.38;7.50;;;;;;;19.67;95.15;100299.59;1758419;81;21439;-59
2022/08/05 05:15:12;;;;;;;10.80;7.45;;;;;;;19.65;94.88;100294.84;1747954;81;21138;-59
2022/08/05 05:17:44;;;;;;;11.25;8.43;;;;;;;19.66;95.23;100306.80;1744832;82;21078;-60
2022/08/05 05:20:16;;;;;;;10.58;8.38;;;;;;;19.65;94.78;100311.52;1753676;81;21509;-59
2022/08/05 05:22:48;;;;;;;10.78;7.85;;;;;;;19.67;94.90;100309.88;1762268;81;21065;-59
2022/08/05 05:25:18;;;;;;;12.85;8.78;;;;;;;19.73;95.03;100302.72;1758656;81;21019;-58
2022/08/05 05:27:51;;;;;;;11.53;8.48;;;;;;;19.81;95.19;100300.03;1755985;81;21463;-60
2022/08/05 05:30:22;;;;;;;10.63;7.92;;;;;;;19.86;95.26;100306.48;1758572;81;21066;-58
2022/08/05 05:32:54;;;;;;;13.25;11.38;;;;;;;19.90;95.64;100314.59;1757258;81;21459;-58
2022/08/05 05:35:24;;;;;;;9.05;7.60;;;;;;;19.95;95.79;100316.03;1756888;81;21039;-59
2022/08/05 05:37:56;;;;;;;11.50;8.15;;;;;;;20.00;95.76;100310.23;1758284;81;21004;-58
2022/08/05 05:40:28;;;;;;;9.18;7.50;;;;;;;20.04;94.99;100312.78;1762278;81;21005;-60
2022/08/05 05:42:58;;;;;;;8.58;7.40;;;;;;;20.05;94.27;100314.46;1741201;81;21058;-59
2022/08/05 05:45:30;;;;;;;11.73;7.72;;;;;;;20.07;94.06;100316.44;1699255;84;21497;-58
2022/08/05 05:48:00;;;;;;;9.80;7.87;;;;;;;20.09;93.97;100317.02;1731840;82;21046;-59
2022/08/05 05:50:32;;;;;;;11.60;8.43;;;;;;;20.08;93.31;100321.73;1698866;84;21031;-59
2022/08/05 05:53:02;;;;;;;9.05;7.33;;;;;;;20.07;93.51;100331.18;1739616;81;21474;-60
2022/08/05 05:55:34;;;;;;;9.50;7.75;;;;;;;20.10;93.45;100333.98;1760812;81;21544;-60
2022/08/05 05:58:06;;;;;;;9.80;7.70;;;;;;;20.11;93.17;100335.12;1761920;81;20995;-61
2022/08/05 06:00:38;;;;;;;8.75;7.37;;;;;;;20.13;93.06;100340.42;1766254;81;21078;-59
2022/08/05 06:03:10;;;;;;;11.33;7.83;;;;;;;20.12;92.60;100334.56;1731603;83;21082;-71
2022/08/05 06:05:42;;;;;;;12.25;9.15;;;;;;;20.13;92.54;100332.91;1728071;83;21246;-58
2022/08/05 06:08:14;;;;;;;12.18;8.75;;;;;;;20.14;92.14;100339.31;1724550;83;21515;-58
2022/08/05 06:10:45;;;;;;;10.90;9.18;;;;;;;20.10;92.12;100335.37;1721240;83;21003;-60
2022/08/05 06:13:18;;;;;;;12.30;8.88;;;;;;;20.06;92.40;100341.18;1723366;83;21023;-61
2022/08/05 06:15:50;;;;;;;13.30;9.40;;;;;;;20.05;92.44;100334.77;1734528;81;21054;-60
2022/08/05 06:18:21;;;;;;;10.53;8.43;;;;;;;20.07;92.54;100337.30;1762223;81;21046;-59
2022/08/05 06:20:53;;;;;;;14.90;9.85;;;;;;;20.04;92.49;100330.86;1754563;81;21076;-58
2022/08/05 06:23:22;;;;;;;12.63;10.18;;;;;;;20.03;92.93;100330.58;1744745;81;21039;-62
2022/08/05 06:25:53;;;;;;;13.93;9.68;;;;;;;20.07;93.32;100331.73;1744760;82;20987;-61
2022/08/05 06:28:24;;;;;;;15.28;10.82;;;;;;;20.12;93.54;100326.22;1740580;82;21075;-58
2022/08/05 06:30:58;;;;;;;15.28;10.68;;;;;;;20.14;93.08;100324.02;1745235;81;21019;-59
2022/08/05 06:33:28;;;;;;;17.95;11.20;;;;;;;20.21;93.38;100329.69;1745358;81;21007;-61
2022/08/05 06:35:59;;;;;;;14.85;12.00;;;;;;;20.30;93.19;100321.70;1740800;82;21038;-58
2022/08/05 06:38:31;;;;;;;16.07;12.35;;;;;;;20.37;92.83;100327.05;1749777;81;20991;-59
2022/08/05 06:41:03;;;;;;;16.62;11.53;;;;;;;20.40;92.37;100324.61;1757946;81;21031;-59
2022/08/05 06:43:32;;;;;;;18.48;11.93;;;;;;;20.46;92.10;100329.67;1727408;81;21038;-60
2022/08/05 06:46:03;;;;;;;19.95;12.60;;;;;;;20.48;91.74;100322.73;1753636;81;21082;-60
2022/08/05 06:48:35;;;;;;;16.45;12.00;;;;;;;20.54;91.70;100330.03;1757901;81;21042;-60
2022/08/05 06:51:07;;;;;;;17.73;12.28;;;;;;;20.55;91.15;100331.70;1753938;81;21423;-59
2022/08/05 06:53:39;;;;;;;15.13;11.70;;;;;;;20.56;90.70;100328.37;1749137;81;21027;-59
2022/08/05 06:56:10;;;;;;;15.88;11.65;;;;;;;20.59;90.72;100334.80;1697798;84;21083;-60
2022/08/05 06:58:41;;;;;;;19.60;12.10;;;;;;;20.65;90.61;100342.64;1697432;84;21027;-59
2022/08/05 07:01:13;;;;;;;17.60;12.53;;;;;;;20.68;90.30;100343.50;1731926;81;21441;-59
2022/08/05 07:06:21;;;;;;;17.23;12.75;;;;;;;20.73;89.86;100346.33;1701271;82;21078;-60
2022/08/05 07:08:54;;;;;;;15.65;12.65;;;;;;;20.79;89.86;100350.28;1728441;83;21027;-61
2022/08/05 07:11:23;;;;;;;16.52;11.88;;;;;;;20.86;89.82;100352.31;1727330;83;21435;-60
2022/08/05 07:16:50;;;;;;;16.60;13.30;;;;;;;20.98;89.41;100347.95;1713007;83;21086;-60
2022/08/05 07:19:21;;;;;;;19.05;13.68;;;;;;;21.01;89.12;100351.59;1717106;83;21062;-63
2022/08/05 07:21:53;;;;;;;20.27;13.20;;;;;;;21.06;88.96;100350.23;1718233;83;21043;-59
2022/08/05 07:24:24;;;;;;;17.62;12.50;;;;;;;21.09;88.78;100356.66;1726505;83;21103;-61
2022/08/05 07:26:55;;;;;;;17.82;12.65;;;;;;;21.14;88.54;100347.49;1731017;83;21916;-60
2022/08/05 07:29:25;;;;;;;16.90;13.15;;;;;;;21.16;88.16;100348.06;1732195;83;21050;-59
2022/08/05 07:31:56;;;;;;;18.20;14.28;;;;;;;21.16;88.00;100351.69;1728211;83;21040;-60
2022/08/05 07:34:25;;;;;;;24.20;13.50;;;;;;;21.19;87.62;100355.33;1710580;83;21018;-60
2022/08/05 07:36:57;;;;;;;19.40;12.88;;;;;;;21.20;87.24;100354.22;1701298;84;21097;-60
2022/08/05 07:39:28;;;;;;;14.95;12.70;;;;;;;21.27;87.37;100353.17;1729161;83;21619;-62
2022/08/05 07:41:59;;;;;;;14.63;11.93;;;;;;;21.37;87.13;100349.05;1706839;83;21079;-60
2022/08/05 07:44:30;;;;;;;16.12;13.43;;;;;;;21.51;86.59;100348.88;1717839;83;21031;-60
2022/08/05 07:47:01;;;;;;;17.60;13.95;;;;;;;21.60;85.87;100351.44;1726746;83;21093;-63
2022/08/05 07:49:32;;;;;;;18.27;12.75;;;;;;;21.67;85.37;100356.77;1732819;82;21080;-62
2022/08/05 07:52:04;;;;;;;18.95;13.00;;;;;;;21.71;85.17;100351.77;1755864;80;21088;-60
2022/08/05 07:54:34;;;;;;;21.62;14.55;;;;;;;21.77;84.56;100356.25;1753730;80;21506;-63
2022/08/05 07:57:28;;;;;;;17.05;13.75;;;;;;;21.83;84.17;100361.30;1708696;84;21055;-61
2022/08/05 07:59:59;;;;;;;18.17;13.22;;;;;;;21.89;84.07;100370.52;1719986;83;21541;-64
2022/08/05 08:02:29;;;;;;;18.00;12.45;;;;;;;21.96;83.58;100366.36;1719965;83;21099;-59
2022/08/05 08:05:01;;;;;;;17.67;13.62;;;;;;;22.09;83.31;100369.22;1704282;83;21451;-60
2022/08/05 08:07:32;;;;;;;18.17;12.55;;;;;;;22.29;82.44;100362.33;1691334;85;21051;-60
2022/08/05 08:10:04;;;;;;;16.30;12.88;;;;;;;22.45;81.76;100361.80;1687351;85;21511;-60
2022/08/05 08:12:34;;;;;;;17.87;13.68;;;;;;;22.58;80.35;100365.44;1704500;83;21529;-60
2022/08/05 08:15:07;;;;;;;18.37;13.30;;;;;;;22.61;79.78;100357.90;1708613;83;21580;-59
2022/08/05 08:17:38;;;;;;;16.02;13.25;;;;;;;22.68;79.68;100363.20;1707966;84;21091;-59
2022/08/05 08:20:10;;;;;;;19.05;13.45;;;;;;;22.75;79.78;100365.16;1690288;85;21047;-59
2022/08/05 08:22:42;;;;;;;19.35;12.85;;;;;;;22.89;79.23;100364.11;1687413;85;21111;-63
2022/08/05 08:25:13;;;;;;;16.85;13.70;;;;;;;23.00;78.01;100365.22;1691286;84;21075;-59
2022/08/05 08:27:44;;;;;;;17.90;13.68;;;;;;;23.00;77.73;100359.63;1666283;85;21206;-60
2022/08/05 08:30:16;;;;;;;18.32;14.23;;;;;;;23.02;77.59;100364.38;1690547;85;21428;-64
2022/08/05 08:32:47;;;;;;;16.00;13.90;;;;;;;23.03;77.45;100370.24;1688426;85;21047;-61
2022/08/05 08:35:19;;;;;;;25.30;14.25;;;;;;;23.04;76.90;100371.92;1691381;85;21562;-60
2022/08/05 08:37:51;;;;;;;16.15;13.35;;;;;;;23.05;76.98;100363.81;1690950;85;21082;-62
2022/08/05 08:40:23;;;;;;;18.05;14.33;;;;;;;23.10;77.01;100365.77;1690957;84;21055;-62
2022/08/05 08:42:53;;;;;;;15.78;13.20;;;;;;;23.11;76.23;100370.23;1691082;85;21071;-63
2022/08/05 08:45:24;;;;;;;15.60;12.47;;;;;;;23.09;75.79;100369.67;1691183;85;21126;-64
2022/08/05 08:47:55;;;;;;;18.23;13.35;;;;;;;23.05;75.99;100368.56;1690828;85;21053;-63
2022/08/05 08:50:26;;;;;;;17.42;14.00;;;;;;;23.03;76.06;100368.84;1681759;84;21055;-61
2022/08/05 08:53:06;;;;;;;18.20;14.28;;;;;;;22.98;75.60;100375.84;1705168;84;21508;-64
2022/08/05 08:55:38;;;;;;;16.10;13.40;;;;;;;22.92;75.83;100372.77;1708257;84;21036;-62
2022/08/05 08:58:10;;;;;;;15.80;13.20;;;;;;;22.88;76.33;100384.23;1728266;82;21541;-64
2022/08/05 09:00:41;;;;;;;16.52;13.72;;;;;;;22.89;76.79;100385.06;1736362;82;21043;-63
2022/08/05 09:03:13;;;;;;;17.50;13.60;;;;;;;22.88;76.10;100387.02;1735409;83;21103;-61
2022/08/05 09:05:44;;;;;;;15.32;12.75;;;;;;;22.86;76.19;100390.66;1739656;82;20996;-59
2022/08/05 09:08:17;;;;;;;18.98;12.73;;;;;;;22.87;76.60;100390.09;1653633;83;21059;-61
2022/08/05 09:10:46;;;;;;;13.35;11.90;;;;;;;22.91;76.57;100385.06;1691645;83;21139;-61
2022/08/05 09:13:16;;;;;;;16.30;13.10;;;;;;;22.92;76.32;100380.31;1704628;83;21151;-58
2022/08/05 09:15:48;;;;;;;19.05;14.30;;;;;;;22.91;76.12;100383.66;1719504;83;21053;-60
2022/08/05 09:18:17;;;;;;;15.38;12.50;;;;;;;22.93;76.47;100381.98;1695641;84;21099;-60
2022/08/05 09:20:50;;;;;;;15.28;11.63;;;;;;;22.97;76.32;100387.30;1665978;84;21046;-59
2022/08/05 09:23:20;;;;;;;14.35;11.53;;;;;;;23.02;75.50;100389.53;1705871;84;21314;-59
2022/08/05 09:25:53;;;;;;;14.58;12.43;;;;;;;23.05;75.26;100390.37;1705878;84;21043;-60
2022/08/05 09:28:26;;;;;;;16.40;12.85;;;;;;;23.08;74.96;100388.97;1679737;84;21117;-60
2022/08/05 09:31:03;;;;;;;19.35;12.43;;;;;;;23.13;74.90;100388.12;1724495;83;21059;-60
2022/08/05 09:33:50;;;;;;;14.30;12.03;;;;;;;23.15;74.85;100388.12;1721913;81;21073;-60
2022/08/05 09:36:22;;;;;;;14.40;12.10;;;;;;;23.18;74.49;100388.12;1715802;83;21059;-60
2022/08/05 09:38:57;;;;;;;17.73;12.58;;;;;;;23.20;74.61;100394.27;1689803;85;21059;-59
2022/08/05 09:41:27;;;;;;;17.00;12.95;;;;;;;23.19;74.11;100390.63;1715648;83;21050;-60
2022/08/05 09:43:59;;;;;;;17.82;13.65;;;;;;;23.17;74.05;100390.07;1685539;84;21162;-59
2022/08/05 09:46:33;;;;;;;14.93;12.03;;;;;;;23.18;74.18;100395.94;1691140;85;21098;-59
2022/08/05 09:49:05;;;;;;;17.30;11.85;;;;;;;23.27;74.01;100387.83;1715526;83;21052;-59
2022/08/05 09:51:40;;;;;;;15.43;12.68;;;;;;;23.31;73.76;100396.77;1707474;83;21036;-59
2022/08/05 09:54:10;;;;;;;15.20;12.85;;;;;;;23.33;73.32;100384.73;1713876;84;21000;-63
2022/08/05 09:56:40;;;;;;;17.15;13.60;;;;;;;23.33;73.26;100398.72;1686914;85;21114;-61
2022/08/05 09:59:15;;;;;;;23.12;13.08;;;;;;;23.36;73.41;100395.91;1663201;85;21059;-61
2022/08/05 10:01:46;;;;;;;16.73;12.50;;;;;;;23.38;73.52;100394.52;1644926;87;21099;-62
2022/08/05 10:04:19;;;;;;;16.65;12.78;;;;;;;23.39;73.49;100396.19;1688487;84;21537;-63
2022/08/05 10:06:56;;;;;;;16.32;12.85;;;;;;;23.38;73.69;100393.67;1712976;84;21541;-62
2022/08/05 10:09:28;;;;;;;16.87;12.68;;;;;;;23.39;73.89;100400.38;1672655;84;21064;-60
2022/08/05 10:12:10;;;;;;;21.57;14.23;;;;;;;23.36;73.10;100395.91;1681607;85;21023;-63
2022/08/05 10:14:41;;;;;;;18.15;11.43;;;;;;;23.27;73.58;100394.81;1690937;84;21129;-61
2022/08/05 10:17:13;;;;;;;17.52;12.80;;;;;;;23.25;73.99;100399.84;1704805;84;21039;-62
2022/08/05 10:19:48;;;;;;;16.57;13.58;;;;;;;23.21;74.39;100401.53;1672970;85;21079;-62
2022/08/05 10:22:20;;;;;;;15.83;12.75;;;;;;;23.21;74.67;100405.16;1708356;84;21542;-63
2022/08/05 10:24:53;;;;;;;14.98;12.47;;;;;;;23.18;74.78;100401.53;1674120;85;21094;-62
2022/08/05 10:27:25;;;;;;;15.98;11.78;;;;;;;23.17;74.93;100404.61;1712272;84;21040;-62
2022/08/05 10:29:56;;;;;;;14.83;12.33;;;;;;;23.16;74.99;100404.33;1645106;84;21869;-66
2022/08/05 10:32:30;;;;;;;15.68;13.13;;;;;;;23.13;74.94;100403.50;1682185;85;21496;-62
2022/08/05 10:35:01;;;;;;;24.27;12.73;;;;;;;23.13;75.37;100404.89;1669855;85;21072;-62
2022/08/05 10:37:33;;;;;;;15.85;12.03;;;;;;;23.17;75.55;100409.64;1685882;85;21023;-62
2022/08/05 10:40:10;;;;;;;17.57;12.35;;;;;;;23.25;74.98;100409.63;1672441;84;21170;-64
2022/08/05 10:42:45;;;;;;;20.27;13.65;;;;;;;23.31;75.20;100409.91;1684198;84;21075;-62
2022/08/05 10:45:16;;;;;;;17.30;13.80;;;;;;;23.34;74.37;100412.14;1732959;83;21027;-63
2022/08/05 10:47:48;;;;;;;17.62;13.75;;;;;;;23.29;74.40;100410.19;1722803;83;21059;-62
2022/08/05 10:50:20;;;;;;;16.52;13.28;;;;;;;23.28;74.58;100404.31;1684580;84;21566;-65
2022/08/05 10:52:58;;;;;;;17.73;13.10;;;;;;;23.28;74.51;100411.30;1659080;86;21502;-62
2022/08/05 10:55:30;;;;;;;;;;;;;;;23.30;74.68;100401.23;1676015;86;21513;-61
2022/08/05 10:58:08;;;;;;;20.20;13.83;;;;;;;23.33;74.26;100402.91;1669452;86;20163;-63
2022/08/05 11:00:43;;;;;;;18.17;13.60;;;;;;;23.31;74.72;100403.75;1708161;84;21018;-63
2022/08/05 11:03:14;;;;;;;18.12;13.13;;;;;;;23.38;75.05;100402.06;1685906;84;21085;-63
2022/08/05 11:06:06;;;;;;;15.63;12.53;;;;;;;23.48;74.14;100393.68;1713984;82;21071;-62
2022/08/05 11:08:38;;;;;;;15.58;13.78;;;;;;;23.51;74.21;100387.52;1693427;84;21059;-62
2022/08/05 11:11:34;;;;;;;19.98;15.38;;;;;;;23.59;74.36;100394.52;1696487;84;21491;-65
2022/08/05 11:14:06;;;;;;;19.05;14.63;;;;;;;23.68;74.32;100401.20;1707516;83;21264;-63
2022/08/05 11:16:37;;;;;;;19.52;14.13;;;;;;;23.81;73.95;100391.38;1725811;83;21047;-62
2022/08/05 11:19:26;;;;;;;18.87;13.28;;;;;;;23.89;73.43;100380.98;1723995;82;20999;-61
2022/08/05 11:22:00;;;;;;;22.73;14.93;;;;;;;23.98;73.24;100377.86;1723739;83;21020;-61
2022/08/05 11:24:36;;;;;;;16.35;14.45;;;;;;;24.04;72.46;100376.71;1684158;84;21051;-63
2022/08/05 11:27:31;;;;;;;17.07;14.47;;;;;;;24.03;72.30;100381.47;1723684;83;21031;-63
2022/08/05 11:30:04;;;;;;;18.55;14.28;;;;;;;24.08;72.10;100376.44;1720314;83;21464;-62
2022/08/05 11:32:34;;;;;;;16.67;13.60;;;;;;;24.19;71.72;100376.66;1725877;83;21019;-65
2022/08/05 11:35:05;;;;;;;17.73;14.53;;;;;;;24.31;71.68;100379.14;1731890;82;21070;-61
2022/08/05 11:37:45;;;;;;;18.42;14.50;;;;;;;24.44;71.37;100377.66;1708803;84;21460;-61
2022/08/05 11:40:18;;;;;;;17.87;14.33;;;;;;;24.57;70.99;100377.02;1706912;84;21076;-62
2022/08/05 11:42:50;;;;;;;18.05;14.13;;;;;;;24.66;70.35;100375.27;1738266;82;21004;-62
2022/08/05 11:45:25;;;;;;;20.02;13.95;;;;;;;24.74;69.84;100383.64;1709078;84;21486;-62
2022/08/05 11:48:08;;;;;;;22.05;13.85;;;;;;;24.76;69.41;100375.78;1705081;84;21087;-62
2022/08/05 11:50:41;;;;;;;17.82;14.85;;;;;;;24.74;69.21;100381.67;1700857;83;21137;-61